sensor_id;sensor_type;location;lat;lon;timestamp;temperature;humidity
36384;DHT22;22418;51.210;6.976;2023-06-10T00:01:44;20.80;99.10
36384;DHT22;22418;51.210;6.976;2023-06-10T00:04:17;20.80;99.20
36384;DHT22;22418;51.210;6.976;2023-06-10T00:06:48;20.70;99.30
36384;DHT22;22418;51.210;6.976;2023-06-10T00:09:19;20.70;99.40
36384;DHT22;22418;51.210;6.976;2023-06-10T00:11:51;20.60;99.60
36384;DHT22;22418;51.210;6.976;2023-06-10T00:14:21;20.60;99.60
36384;DHT22;22418;51.210;6.976;2023-06-10T00:16:52;20.60;99.70
36384;DHT22;22418;51.210;6.976;2023-06-10T00:19:23;20.60;99.80
36384;DHT22;22418;51.210;6.976;2023-06-10T00:21:56;20.50;99.90
36384;DHT22;22418;51.210;6.976;2023-06-10T00:24:27;20.50;99.90
36384;DHT22;22418;51.210;6.976;2023-06-10T00:26:57;20.50;99.90
36384;DHT22;22418;51.210;6.976;2023-06-10T00:29:28;20.50;99.90
36384;DHT22;22418;51.210;6.976;2023-06-10T00:31:59;20.50;99.90
36384;DHT22;22418;51.210;6.976;2023-06-10T00:34:29;20.50;99.90
36384;DHT22;22418;51.210;6.976;2023-06-10T00:37:00;20.40;99.90
36384;DHT22;22418;51.210;6.976;2023-06-10T00:39:31;20.40;99.90
36384;DHT22;22418;51.210;6.976;2023-06-10T00:42:01;20.40;99.90
36384;DHT22;22418;51.210;6.976;2023-06-10T00:44:32;20.30;99.90
36384;DHT22;22418;51.210;6.976;2023-06-10T00:47:03;20.20;99.90
36384;DHT22;22418;51.210;6.976;2023-06-10T00:49:34;20.20;99.90
36384;DHT22;22418;51.210;6.976;2023-06-10T00:52:06;20.20;99.90
36384;DHT22;22418;51.210;6.976;2023-06-10T00:54:37;20.10;99.90
36384;DHT22;22418;51.210;6.976;2023-06-10T00:57:09;20.20;99.90
36384;DHT22;22418;51.210;6.976;2023-06-10T00:59:41;20.20;99.90
36384;DHT22;22418;51.210;6.976;2023-06-10T01:02:13;20.20;99.90
36384;DHT22;22418;51.210;6.976;2023-06-10T01:04:44;20.20;99.90
36384;DHT22;22418;51.210;6.976;2023-06-10T01:07:24;20.20;99.90
36384;DHT22;22418;51.210;6.976;2023-06-10T01:10:01;20.10;99.90
36384;DHT22;22418;51.210;6.976;2023-06-10T01:12:52;20.10;99.90
36384;DHT22;22418;51.210;6.976;2023-06-10T01:15:26;20.20;99.90
36384;DHT22;22418;51.210;6.976;2023-06-10T01:18:05;20.10;99.90
36384;DHT22;22418;51.210;6.976;2023-06-10T01:20:38;20.10;99.90
36384;DHT22;22418;51.210;6.976;2023-06-10T01:23:13;20.10;99.90
36384;DHT22;22418;51.210;6.976;2023-06-10T01:26:02;20.00;99.90
36384;DHT22;22418;51.210;6.976;2023-06-10T01:34:10;20.10;99.90
36384;DHT22;22418;51.210;6.976;2023-06-10T01:36:41;19.90;99.90
36384;DHT22;22418;51.210;6.976;2023-06-10T01:39:21;19.90;99.90
36384;DHT22;22418;51.210;6.976;2023-06-10T01:41:53;19.90;99.90
36384;DHT22;22418;51.210;6.976;2023-06-10T01:44:24;19.90;99.90
36384;DHT22;22418;51.210;6.976;2023-06-10T01:46:55;19.80;99.90
36384;DHT22;22418;51.210;6.976;2023-06-10T01:49:25;19.70;99.90
36384;DHT22;22418;51.210;6.976;2023-06-10T01:51:56;19.80;99.90
36384;DHT22;22418;51.210;6.976;2023-06-10T01:54:27;19.70;99.90
36384;DHT22;22418;51.210;6.976;2023-06-10T01:56:57;19.70;99.90
36384;DHT22;22418;51.210;6.976;2023-06-10T01:59:28;19.70;99.90
36384;DHT22;22418;51.210;6.976;2023-06-10T02:01:58;19.70;99.90
36384;DHT22;22418;51.210;6.976;2023-06-10T02:04:29;19.60;99.90
36384;DHT22;22418;51.210;6.976;2023-06-10T02:07:00;19.50;99.90
36384;DHT22;22418;51.210;6.976;2023-06-10T02:09:34;19.40;99.90
36384;DHT22;22418;51.210;6.976;2023-06-10T02:12:06;19.30;99.90
36384;DHT22;22418;51.210;6.976;2023-06-10T02:14:36;19.30;99.90
36384;DHT22;22418;51.210;6.976;2023-06-10T02:17:07;19.20;99.90
36384;DHT22;22418;51.210;6.976;2023-06-10T02:19:38;19.10;99.90
36384;DHT22;22418;51.210;6.976;2023-06-10T02:22:12;19.20;99.90
36384;DHT22;22418;51.210;6.976;2023-06-10T02:24:43;19.20;99.90
36384;DHT22;22418;51.210;6.976;2023-06-10T02:27:14;19.20;99.90
36384;DHT22;22418;51.210;6.976;2023-06-10T02:29:45;19.20;99.90
36384;DHT22;22418;51.210;6.976;2023-06-10T02:32:15;19.20;99.90
36384;DHT22;22418;51.210;6.976;2023-06-10T02:34:46;19.10;99.90
36384;DHT22;22418;51.210;6.976;2023-06-10T02:37:17;19.10;99.90
36384;DHT22;22418;51.210;6.976;2023-06-10T02:39:48;19.20;99.90
36384;DHT22;22418;51.210;6.976;2023-06-10T02:42:18;19.20;99.90
36384;DHT22;22418;51.210;6.976;2023-06-10T02:44:49;19.20;99.90
36384;DHT22;22418;51.210;6.976;2023-06-10T02:47:20;19.20;99.90
36384;DHT22;22418;51.210;6.976;2023-06-10T02:49:50;19.20;99.90
36384;DHT22;22418;51.210;6.976;2023-06-10T02:52:21;19.20;99.90
36384;DHT22;22418;51.210;6.976;2023-06-10T02:54:51;19.20;99.90
36384;DHT22;22418;51.210;6.976;2023-06-10T02:57:22;19.20;99.90
36384;DHT22;22418;51.210;6.976;2023-06-10T02:59:53;19.10;99.90
36384;DHT22;22418;51.210;6.976;2023-06-10T03:02:24;19.10;99.90
36384;DHT22;22418;51.210;6.976;2023-06-10T03:04:58;19.10;99.90
36384;DHT22;22418;51.210;6.976;2023-06-10T03:07:29;19.20;99.90
36384;DHT22;22418;51.210;6.976;2023-06-10T03:10:00;19.10;99.90
36384;DHT22;22418;51.210;6.976;2023-06-10T03:12:31;19.20;99.90
36384;DHT22;22418;51.210;6.976;2023-06-10T03:15:01;19.20;99.90
36384;DHT22;22418;51.210;6.976;2023-06-10T03:17:34;19.30;99.90
36384;DHT22;22418;51.210;6.976;2023-06-10T03:20:05;19.40;99.90
36384;DHT22;22418;51.210;6.976;2023-06-10T03:22:36;19.40;99.90
36384;DHT22;22418;51.210;6.976;2023-06-10T03:25:08;19.50;99.90
36384;DHT22;22418;51.210;6.976;2023-06-10T03:27:44;19.50;99.90
36384;DHT22;22418;51.210;6.976;2023-06-10T03:30:14;19.50;99.90
36384;DHT22;22418;51.210;6.976;2023-06-10T03:32:45;19.50;99.90
36384;DHT22;22418;51.210;6.976;2023-06-10T03:35:15;19.50;99.90
36384;DHT22;22418;51.210;6.976;2023-06-10T03:37:47;19.40;99.90
36384;DHT22;22418;51.210;6.976;2023-06-10T03:40:18;19.40;99.90
36384;DHT22;22418;51.210;6.976;2023-06-10T03:42:48;19.40;99.90
36384;DHT22;22418;51.210;6.976;2023-06-10T03:45:19;19.50;99.90
36384;DHT22;22418;51.210;6.976;2023-06-10T03:47:50;19.50;99.90
36384;DHT22;22418;51.210;6.976;2023-06-10T03:50:21;19.50;99.90
36384;DHT22;22418;51.210;6.976;2023-06-10T03:52:53;19.50;99.90
36384;DHT22;22418;51.210;6.976;2023-06-10T03:55:24;19.50;99.90
36384;DHT22;22418;51.210;6.976;2023-06-10T03:57:54;19.50;99.90
36384;DHT22;22418;51.210;6.976;2023-06-10T04:00:25;19.50;99.90
36384;DHT22;22418;51.210;6.976;2023-06-10T04:02:56;19.50;99.90
36384;DHT22;22418;51.210;6.976;2023-06-10T04:05:28;19.50;99.90
36384;DHT22;22418;51.210;6.976;2023-06-10T04:07:59;19.50;99.90
36384;DHT22;22418;51.210;6.976;2023-06-10T04:10:29;19.60;99.90
36384;DHT22;22418;51.210;6.976;2023-06-10T04:13:00;19.70;99.90
36384;DHT22;22418;51.210;6.976;2023-06-10T04:15:31;19.80;99.90
36384;DHT22;22418;51.210;6.976;2023-06-10T04:18:04;19.90;99.90
36384;DHT22;22418;51.210;6.976;2023-06-10T04:20:35;20.00;99.90
36384;DHT22;22418;51.210;6.976;2023-06-10T04:23:06;20.10;99.90
36384;DHT22;22418;51.210;6.976;2023-06-10T04:25:36;20.10;99.90
36384;DHT22;22418;51.210;6.976;2023-06-10T04:28:07;20.20;99.90
36384;DHT22;22418;51.210;6.976;2023-06-10T04:30:37;20.30;99.90
36384;DHT22;22418;51.210;6.976;2023-06-10T04:33:08;20.50;99.90
36384;DHT22;22418;51.210;6.976;2023-06-10T04:35:39;20.60;99.90
36384;DHT22;22418;51.210;6.976;2023-06-10T04:38:10;20.70;99.90
36384;DHT22;22418;51.210;6.976;2023-06-10T04:40:41;21.10;99.90
36384;DHT22;22418;51.210;6.976;2023-06-10T04:43:11;21.40;99.90
36384;DHT22;22418;51.210;6.976;2023-06-10T04:45:43;21.70;99.90
36384;DHT22;22418;51.210;6.976;2023-06-10T04:48:16;21.90;99.90
36384;DHT22;22418;51.210;6.976;2023-06-10T04:50:47;22.20;99.90
36384;DHT22;22418;51.210;6.976;2023-06-10T04:53:17;22.50;99.90
36384;DHT22;22418;51.210;6.976;2023-06-10T04:55:48;23.10;99.70
36384;DHT22;22418;51.210;6.976;2023-06-10T04:58:18;23.40;99.00
36384;DHT22;22418;51.210;6.976;2023-06-10T05:00:49;23.80;98.60
36384;DHT22;22418;51.210;6.976;2023-06-10T05:03:20;24.30;97.20
36384;DHT22;22418;51.210;6.976;2023-06-10T05:05:51;24.50;96.70
36384;DHT22;22418;51.210;6.976;2023-06-10T05:08:21;24.60;97.30
36384;DHT22;22418;51.210;6.976;2023-06-10T05:10:52;24.70;97.40
36384;DHT22;22418;51.210;6.976;2023-06-10T05:13:22;25.10;96.80
36384;DHT22;22418;51.210;6.976;2023-06-10T05:15:53;26.20;96.10
36384;DHT22;22418;51.210;6.976;2023-06-10T05:18:23;27.40;94.90
36384;DHT22;22418;51.210;6.976;2023-06-10T05:20:54;28.20;93.40
36384;DHT22;22418;51.210;6.976;2023-06-10T05:23:25;28.50;92.20
36384;DHT22;22418;51.210;6.976;2023-06-10T05:25:55;29.00;91.30
36384;DHT22;22418;51.210;6.976;2023-06-10T05:28:26;29.00;91.20
36384;DHT22;22418;51.210;6.976;2023-06-10T05:30:56;29.20;91.00
36384;DHT22;22418;51.210;6.976;2023-06-10T05:33:27;29.10;90.40
36384;DHT22;22418;51.210;6.976;2023-06-10T05:35:57;29.10;90.20
36384;DHT22;22418;51.210;6.976;2023-06-10T05:38:28;29.00;90.40
36384;DHT22;22418;51.210;6.976;2023-06-10T05:40:58;29.20;90.30
36384;DHT22;22418;51.210;6.976;2023-06-10T05:43:29;29.00;89.30
36384;DHT22;22418;51.210;6.976;2023-06-10T05:46:00;29.00;89.10
36384;DHT22;22418;51.210;6.976;2023-06-10T05:48:30;29.00;89.90
36384;DHT22;22418;51.210;6.976;2023-06-10T05:51:01;29.30;89.20
36384;DHT22;22418;51.210;6.976;2023-06-10T05:53:32;29.80;87.40
36384;DHT22;22418;51.210;6.976;2023-06-10T05:56:03;30.20;87.10
36384;DHT22;22418;51.210;6.976;2023-06-10T05:58:33;31.00;84.70
36384;DHT22;22418;51.210;6.976;2023-06-10T06:01:04;32.40;83.30
36384;DHT22;22418;51.210;6.976;2023-06-10T06:03:34;33.40;78.90
36384;DHT22;22418;51.210;6.976;2023-06-10T06:06:05;34.40;75.90
36384;DHT22;22418;51.210;6.976;2023-06-10T06:08:36;34.30;74.30
36384;DHT22;22418;51.210;6.976;2023-06-10T06:11:06;35.40;73.80
36384;DHT22;22418;51.210;6.976;2023-06-10T06:13:37;35.90;71.90
36384;DHT22;22418;51.210;6.976;2023-06-10T06:16:07;36.60;69.90
36384;DHT22;22418;51.210;6.976;2023-06-10T06:18:38;36.50;67.20
36384;DHT22;22418;51.210;6.976;2023-06-10T06:21:08;37.40;66.90
36384;DHT22;22418;51.210;6.976;2023-06-10T06:23:39;37.50;64.90
36384;DHT22;22418;51.210;6.976;2023-06-10T06:26:10;38.10;63.20
36384;DHT22;22418;51.210;6.976;2023-06-10T06:32:08;37.50;62.80
36384;DHT22;22418;51.210;6.976;2023-06-10T06:34:38;39.00;62.20
36384;DHT22;22418;51.210;6.976;2023-06-10T06:37:09;38.40;61.20
36384;DHT22;22418;51.210;6.976;2023-06-10T06:39:39;38.80;61.40
36384;DHT22;22418;51.210;6.976;2023-06-10T06:42:10;39.40;60.30
36384;DHT22;22418;51.210;6.976;2023-06-10T06:44:41;39.60;60.50
36384;DHT22;22418;51.210;6.976;2023-06-10T06:47:11;39.90;59.10
36384;DHT22;22418;51.210;6.976;2023-06-10T06:49:42;39.40;59.20
36384;DHT22;22418;51.210;6.976;2023-06-10T06:52:13;39.60;58.80
36384;DHT22;22418;51.210;6.976;2023-06-10T06:54:43;39.90;58.00
36384;DHT22;22418;51.210;6.976;2023-06-10T06:57:14;39.70;57.50
36384;DHT22;22418;51.210;6.976;2023-06-10T06:59:45;38.50;58.50
36384;DHT22;22418;51.210;6.976;2023-06-10T07:02:15;38.00;59.30
36384;DHT22;22418;51.210;6.976;2023-06-10T07:04:46;38.20;58.80
36384;DHT22;22418;51.210;6.976;2023-06-10T07:07:19;38.00;58.60
36384;DHT22;22418;51.210;6.976;2023-06-10T07:09:49;37.90;58.80
36384;DHT22;22418;51.210;6.976;2023-06-10T07:12:20;38.00;58.10
36384;DHT22;22418;51.210;6.976;2023-06-10T07:14:54;37.20;58.80
36384;DHT22;22418;51.210;6.976;2023-06-10T07:17:24;36.30;59.60
36384;DHT22;22418;51.210;6.976;2023-06-10T07:19:55;35.80;60.60
36384;DHT22;22418;51.210;6.976;2023-06-10T07:22:28;35.70;60.30
36384;DHT22;22418;51.210;6.976;2023-06-10T07:24:58;34.70;62.20
36384;DHT22;22418;51.210;6.976;2023-06-10T07:27:29;34.20;62.40
36384;DHT22;22418;51.210;6.976;2023-06-10T07:29:59;34.10;62.60
36384;DHT22;22418;51.210;6.976;2023-06-10T07:32:31;34.20;62.40
36384;DHT22;22418;51.210;6.976;2023-06-10T07:35:02;33.80;63.30
36384;DHT22;22418;51.210;6.976;2023-06-10T07:37:32;33.70;63.20
36384;DHT22;22418;51.210;6.976;2023-06-10T07:40:03;33.60;63.60
36384;DHT22;22418;51.210;6.976;2023-06-10T07:42:37;33.70;63.50
36384;DHT22;22418;51.210;6.976;2023-06-10T07:45:08;33.20;63.70
36384;DHT22;22418;51.210;6.976;2023-06-10T07:47:38;33.20;64.20
36384;DHT22;22418;51.210;6.976;2023-06-10T07:50:09;32.80;64.80
36384;DHT22;22418;51.210;6.976;2023-06-10T07:52:40;32.70;65.40
36384;DHT22;22418;51.210;6.976;2023-06-10T07:55:10;32.70;65.00
36384;DHT22;22418;51.210;6.976;2023-06-10T07:57:41;32.20;65.40
36384;DHT22;22418;51.210;6.976;2023-06-10T08:00:12;32.00;65.90
36384;DHT22;22418;51.210;6.976;2023-06-10T08:02:42;31.70;66.60
36384;DHT22;22418;51.210;6.976;2023-06-10T08:05:13;31.80;66.80
36384;DHT22;22418;51.210;6.976;2023-06-10T08:07:45;31.70;68.00
36384;DHT22;22418;51.210;6.976;2023-06-10T08:10:15;31.70;66.00
36384;DHT22;22418;51.210;6.976;2023-06-10T08:12:45;31.80;67.10
36384;DHT22;22418;51.210;6.976;2023-06-10T08:15:16;31.60;66.40
36384;DHT22;22418;51.210;6.976;2023-06-10T08:17:46;31.70;66.30
36384;DHT22;22418;51.210;6.976;2023-06-10T08:20:18;31.70;67.10
36384;DHT22;22418;51.210;6.976;2023-06-10T08:22:48;31.80;67.90
36384;DHT22;22418;51.210;6.976;2023-06-10T08:27:54;31.30;67.70
36384;DHT22;22418;51.210;6.976;2023-06-10T08:30:26;31.10;68.90
36384;DHT22;22418;51.210;6.976;2023-06-10T08:32:57;30.50;69.70
36384;DHT22;22418;51.210;6.976;2023-06-10T08:35:28;30.50;70.60
36384;DHT22;22418;51.210;6.976;2023-06-10T08:37:58;30.10;71.80
36384;DHT22;22418;51.210;6.976;2023-06-10T08:40:29;29.90;71.80
36384;DHT22;22418;51.210;6.976;2023-06-10T08:43:06;29.70;73.00
36384;DHT22;22418;51.210;6.976;2023-06-10T08:45:37;29.40;74.00
36384;DHT22;22418;51.210;6.976;2023-06-10T08:48:10;29.30;74.70
36384;DHT22;22418;51.210;6.976;2023-06-10T08:50:41;29.10;74.50
36384;DHT22;22418;51.210;6.976;2023-06-10T08:53:14;29.20;74.90
36384;DHT22;22418;51.210;6.976;2023-06-10T08:55:50;29.10;75.60
36384;DHT22;22418;51.210;6.976;2023-06-10T08:58:22;28.90;76.30
36384;DHT22;22418;51.210;6.976;2023-06-10T09:00:53;29.00;76.60
36384;DHT22;22418;51.210;6.976;2023-06-10T09:03:24;28.90;76.00
36384;DHT22;22418;51.210;6.976;2023-06-10T09:05:55;28.70;76.10
36384;DHT22;22418;51.210;6.976;2023-06-10T09:08:27;28.30;78.30
36384;DHT22;22418;51.210;6.976;2023-06-10T09:10:58;28.50;77.20
36384;DHT22;22418;51.210;6.976;2023-06-10T09:13:29;28.60;77.30
36384;DHT22;22418;51.210;6.976;2023-06-10T09:15:59;28.30;78.60
36384;DHT22;22418;51.210;6.976;2023-06-10T09:18:31;28.40;78.40
36384;DHT22;22418;51.210;6.976;2023-06-10T09:21:02;28.30;78.60
36384;DHT22;22418;51.210;6.976;2023-06-10T09:23:33;28.30;78.30
36384;DHT22;22418;51.210;6.976;2023-06-10T09:26:09;28.20;78.10
36384;DHT22;22418;51.210;6.976;2023-06-10T09:28:50;28.20;79.20
36384;DHT22;22418;51.210;6.976;2023-06-10T09:31:21;28.40;79.70
36384;DHT22;22418;51.210;6.976;2023-06-10T09:33:52;28.30;78.90
36384;DHT22;22418;51.210;6.976;2023-06-10T09:36:23;28.00;78.70
36384;DHT22;22418;51.210;6.976;2023-06-10T09:38:56;28.10;79.10
36384;DHT22;22418;51.210;6.976;2023-06-10T09:41:34;27.60;79.50
36384;DHT22;22418;51.210;6.976;2023-06-10T09:44:18;27.40;80.10
36384;DHT22;22418;51.210;6.976;2023-06-10T09:46:49;27.00;79.70
36384;DHT22;22418;51.210;6.976;2023-06-10T09:49:28;26.90;81.50
36384;DHT22;22418;51.210;6.976;2023-06-10T09:51:59;27.10;81.80
36384;DHT22;22418;51.210;6.976;2023-06-10T09:54:32;27.00;80.80
36384;DHT22;22418;51.210;6.976;2023-06-10T09:57:07;26.70;81.30
36384;DHT22;22418;51.210;6.976;2023-06-10T09:59:39;26.70;81.80
36384;DHT22;22418;51.210;6.976;2023-06-10T10:02:17;26.70;81.40
36384;DHT22;22418;51.210;6.976;2023-06-10T10:04:48;26.60;81.60
36384;DHT22;22418;51.210;6.976;2023-06-10T10:07:18;26.50;81.30
36384;DHT22;22418;51.210;6.976;2023-06-10T10:09:49;26.50;80.90
36384;DHT22;22418;51.210;6.976;2023-06-10T10:12:20;26.60;80.60
36384;DHT22;22418;51.210;6.976;2023-06-10T10:14:50;26.60;79.00
36384;DHT22;22418;51.210;6.976;2023-06-10T10:17:23;26.60;78.40
36384;DHT22;22418;51.210;6.976;2023-06-10T10:19:59;26.60;78.80
36384;DHT22;22418;51.210;6.976;2023-06-10T10:22:39;26.70;78.80
36384;DHT22;22418;51.210;6.976;2023-06-10T10:25:18;26.70;78.00
36384;DHT22;22418;51.210;6.976;2023-06-10T10:28:08;26.60;78.80
36384;DHT22;22418;51.210;6.976;2023-06-10T10:30:46;26.60;79.90
36384;DHT22;22418;51.210;6.976;2023-06-10T10:33:20;26.50;80.30
36384;DHT22;22418;51.210;6.976;2023-06-10T10:35:53;26.30;80.70
36384;DHT22;22418;51.210;6.976;2023-06-10T10:38:24;26.30;81.50
36384;DHT22;22418;51.210;6.976;2023-06-10T10:40:55;26.30;81.00
36384;DHT22;22418;51.210;6.976;2023-06-10T10:43:30;26.30;80.40
36384;DHT22;22418;51.210;6.976;2023-06-10T10:46:02;26.40;81.30
36384;DHT22;22418;51.210;6.976;2023-06-10T10:48:38;26.70;81.10
36384;DHT22;22418;51.210;6.976;2023-06-10T10:51:09;27.00;81.00
36384;DHT22;22418;51.210;6.976;2023-06-10T10:53:40;27.30;79.90
36384;DHT22;22418;51.210;6.976;2023-06-10T10:56:16;27.30;78.20
36384;DHT22;22418;51.210;6.976;2023-06-10T10:59:04;27.30;78.60
36384;DHT22;22418;51.210;6.976;2023-06-10T11:01:42;27.30;78.90
36384;DHT22;22418;51.210;6.976;2023-06-10T11:04:18;27.30;79.10
36384;DHT22;22418;51.210;6.976;2023-06-10T11:07:06;27.30;80.30
36384;DHT22;22418;51.210;6.976;2023-06-10T11:09:37;27.20;80.00
36384;DHT22;22418;51.210;6.976;2023-06-10T11:12:08;27.20;80.30
36384;DHT22;22418;51.210;6.976;2023-06-10T11:14:54;27.20;81.20
36384;DHT22;22418;51.210;6.976;2023-06-10T11:17:25;27.20;80.00
36384;DHT22;22418;51.210;6.976;2023-06-10T11:19:58;27.20;80.00
36384;DHT22;22418;51.210;6.976;2023-06-10T11:22:29;27.30;77.40
36384;DHT22;22418;51.210;6.976;2023-06-10T11:25:00;27.30;79.00
36384;DHT22;22418;51.210;6.976;2023-06-10T11:27:37;27.30;78.90
36384;DHT22;22418;51.210;6.976;2023-06-10T11:30:25;27.40;79.20
36384;DHT22;22418;51.210;6.976;2023-06-10T11:32:56;27.30;79.00
36384;DHT22;22418;51.210;6.976;2023-06-10T11:35:28;27.20;79.00
36384;DHT22;22418;51.210;6.976;2023-06-10T11:38:00;27.10;79.20
36384;DHT22;22418;51.210;6.976;2023-06-10T11:40:31;27.10;78.90
36384;DHT22;22418;51.210;6.976;2023-06-10T11:43:04;27.10;79.20
36384;DHT22;22418;51.210;6.976;2023-06-10T11:45:34;26.90;78.50
36384;DHT22;22418;51.210;6.976;2023-06-10T11:48:05;26.90;78.00
36384;DHT22;22418;51.210;6.976;2023-06-10T11:50:36;26.80;78.20
36384;DHT22;22418;51.210;6.976;2023-06-10T11:53:08;26.80;77.80
36384;DHT22;22418;51.210;6.976;2023-06-10T11:55:50;26.70;77.60
36384;DHT22;22418;51.210;6.976;2023-06-10T11:58:22;26.60;78.80
36384;DHT22;22418;51.210;6.976;2023-06-10T12:00:54;26.60;78.50
36384;DHT22;22418;51.210;6.976;2023-06-10T12:03:26;26.50;79.10
36384;DHT22;22418;51.210;6.976;2023-06-10T12:06:06;26.40;79.50
36384;DHT22;22418;51.210;6.976;2023-06-10T12:08:42;26.40;78.60
36384;DHT22;22418;51.210;6.976;2023-06-10T12:11:13;26.40;79.80
36384;DHT22;22418;51.210;6.976;2023-06-10T12:13:48;26.40;79.60
36384;DHT22;22418;51.210;6.976;2023-06-10T12:16:19;26.40;79.20
36384;DHT22;22418;51.210;6.976;2023-06-10T12:18:50;26.40;80.40
36384;DHT22;22418;51.210;6.976;2023-06-10T12:21:24;26.30;78.90
36384;DHT22;22418;51.210;6.976;2023-06-10T12:24:10;26.30;78.60
36384;DHT22;22418;51.210;6.976;2023-06-10T12:26:44;26.40;79.30
36384;DHT22;22418;51.210;6.976;2023-06-10T12:29:19;26.50;79.60
36384;DHT22;22418;51.210;6.976;2023-06-10T12:32:03;26.60;80.20
36384;DHT22;22418;51.210;6.976;2023-06-10T12:34:37;26.80;80.10
36384;DHT22;22418;51.210;6.976;2023-06-10T12:37:12;27.00;77.60
36384;DHT22;22418;51.210;6.976;2023-06-10T12:39:51;27.10;75.30
36384;DHT22;22418;51.210;6.976;2023-06-10T12:42:23;27.30;75.00
36384;DHT22;22418;51.210;6.976;2023-06-10T12:44:54;27.40;75.20
36384;DHT22;22418;51.210;6.976;2023-06-10T12:47:33;27.50;76.50
36384;DHT22;22418;51.210;6.976;2023-06-10T12:50:05;27.50;78.50
36384;DHT22;22418;51.210;6.976;2023-06-10T12:52:36;27.30;78.50
36384;DHT22;22418;51.210;6.976;2023-06-10T12:55:07;27.00;78.90
36384;DHT22;22418;51.210;6.976;2023-06-10T12:57:47;26.90;79.60
36384;DHT22;22418;51.210;6.976;2023-06-10T13:00:18;26.80;79.10
36384;DHT22;22418;51.210;6.976;2023-06-10T13:02:49;26.70;79.60
36384;DHT22;22418;51.210;6.976;2023-06-10T13:05:20;26.80;80.00
36384;DHT22;22418;51.210;6.976;2023-06-10T13:07:51;27.00;78.10
36384;DHT22;22418;51.210;6.976;2023-06-10T13:10:22;27.10;78.70
36384;DHT22;22418;51.210;6.976;2023-06-10T13:12:53;27.20;79.90
36384;DHT22;22418;51.210;6.976;2023-06-10T13:15:24;27.30;78.10
36384;DHT22;22418;51.210;6.976;2023-06-10T13:17:56;27.20;77.80
36384;DHT22;22418;51.210;6.976;2023-06-10T13:20:27;27.10;77.90
36384;DHT22;22418;51.210;6.976;2023-06-10T13:22:58;27.10;77.70
36384;DHT22;22418;51.210;6.976;2023-06-10T13:25:28;27.10;78.40
36384;DHT22;22418;51.210;6.976;2023-06-10T13:27:59;27.10;76.70
36384;DHT22;22418;51.210;6.976;2023-06-10T13:30:29;27.10;77.70
36384;DHT22;22418;51.210;6.976;2023-06-10T13:33:00;27.20;78.60
36384;DHT22;22418;51.210;6.976;2023-06-10T13:35:31;27.20;77.70
36384;DHT22;22418;51.210;6.976;2023-06-10T13:38:01;27.10;77.00
36384;DHT22;22418;51.210;6.976;2023-06-10T13:40:32;27.10;77.80
36384;DHT22;22418;51.210;6.976;2023-06-10T13:43:02;27.10;78.00
36384;DHT22;22418;51.210;6.976;2023-06-10T13:45:33;27.10;78.70
36384;DHT22;22418;51.210;6.976;2023-06-10T13:48:03;27.10;79.30
36384;DHT22;22418;51.210;6.976;2023-06-10T13:50:37;27.10;78.80
36384;DHT22;22418;51.210;6.976;2023-06-10T13:53:07;27.00;78.60
36384;DHT22;22418;51.210;6.976;2023-06-10T13:55:38;27.00;79.10
36384;DHT22;22418;51.210;6.976;2023-06-10T13:58:08;27.00;79.60
36384;DHT22;22418;51.210;6.976;2023-06-10T14:00:39;27.00;81.30
36384;DHT22;22418;51.210;6.976;2023-06-10T14:03:10;26.90;80.80
36384;DHT22;22418;51.210;6.976;2023-06-10T14:05:40;26.90;77.90
36384;DHT22;22418;51.210;6.976;2023-06-10T14:08:11;26.80;76.90
36384;DHT22;22418;51.210;6.976;2023-06-10T14:10:42;26.70;75.50
36384;DHT22;22418;51.210;6.976;2023-06-10T14:13:13;26.70;76.90
36384;DHT22;22418;51.210;6.976;2023-06-10T14:15:43;26.70;77.50
36384;DHT22;22418;51.210;6.976;2023-06-10T14:18:14;26.90;78.00
36384;DHT22;22418;51.210;6.976;2023-06-10T14:20:44;27.00;78.00
36384;DHT22;22418;51.210;6.976;2023-06-10T14:23:15;27.10;78.60
36384;DHT22;22418;51.210;6.976;2023-06-10T14:25:45;27.20;77.40
36384;DHT22;22418;51.210;6.976;2023-06-10T14:28:16;27.30;78.70
36384;DHT22;22418;51.210;6.976;2023-06-10T14:30:46;27.50;78.40
36384;DHT22;22418;51.210;6.976;2023-06-10T14:33:17;27.50;78.50
36384;DHT22;22418;51.210;6.976;2023-06-10T14:35:47;27.60;80.60
36384;DHT22;22418;51.210;6.976;2023-06-10T14:38:18;27.50;77.70
36384;DHT22;22418;51.210;6.976;2023-06-10T14:40:49;27.40;79.70
36384;DHT22;22418;51.210;6.976;2023-06-10T14:43:19;27.40;78.50
36384;DHT22;22418;51.210;6.976;2023-06-10T14:45:50;27.30;78.70
36384;DHT22;22418;51.210;6.976;2023-06-10T14:48:21;27.10;78.30
36384;DHT22;22418;51.210;6.976;2023-06-10T14:50:52;27.20;78.00
36384;DHT22;22418;51.210;6.976;2023-06-10T14:53:25;27.10;79.50
36384;DHT22;22418;51.210;6.976;2023-06-10T14:55:55;27.20;80.30
36384;DHT22;22418;51.210;6.976;2023-06-10T14:58:26;27.30;80.50
36384;DHT22;22418;51.210;6.976;2023-06-10T15:00:56;27.30;80.40
36384;DHT22;22418;51.210;6.976;2023-06-10T15:03:27;27.30;79.30
36384;DHT22;22418;51.210;6.976;2023-06-10T15:05:58;27.40;80.30
36384;DHT22;22418;51.210;6.976;2023-06-10T15:08:28;27.50;80.20
36384;DHT22;22418;51.210;6.976;2023-06-10T15:10:59;27.60;79.40
36384;DHT22;22418;51.210;6.976;2023-06-10T15:13:31;27.60;79.70
36384;DHT22;22418;51.210;6.976;2023-06-10T15:16:01;27.50;76.30
36384;DHT22;22418;51.210;6.976;2023-06-10T15:18:32;27.60;76.30
36384;DHT22;22418;51.210;6.976;2023-06-10T15:21:03;27.50;76.50
36384;DHT22;22418;51.210;6.976;2023-06-10T15:23:34;27.50;76.60
36384;DHT22;22418;51.210;6.976;2023-06-10T15:26:05;27.50;76.30
36384;DHT22;22418;51.210;6.976;2023-06-10T15:28:35;27.50;77.40
36384;DHT22;22418;51.210;6.976;2023-06-10T15:31:06;27.40;78.00
36384;DHT22;22418;51.210;6.976;2023-06-10T15:33:36;27.40;77.70
36384;DHT22;22418;51.210;6.976;2023-06-10T15:36:07;27.30;77.40
36384;DHT22;22418;51.210;6.976;2023-06-10T15:38:37;27.30;78.20
36384;DHT22;22418;51.210;6.976;2023-06-10T15:41:08;27.30;78.40
36384;DHT22;22418;51.210;6.976;2023-06-10T15:43:38;27.30;74.70
36384;DHT22;22418;51.210;6.976;2023-06-10T15:46:10;27.50;74.90
36384;DHT22;22418;51.210;6.976;2023-06-10T15:48:40;27.50;75.00
36384;DHT22;22418;51.210;6.976;2023-06-10T15:51:11;27.50;73.10
36384;DHT22;22418;51.210;6.976;2023-06-10T15:53:41;27.50;72.30
36384;DHT22;22418;51.210;6.976;2023-06-10T15:56:12;27.60;71.50
36384;DHT22;22418;51.210;6.976;2023-06-10T15:58:46;27.60;69.00
36384;DHT22;22418;51.210;6.976;2023-06-10T16:01:16;27.60;70.10
36384;DHT22;22418;51.210;6.976;2023-06-10T16:03:47;27.60;69.60
36384;DHT22;22418;51.210;6.976;2023-06-10T16:06:17;27.60;69.10
36384;DHT22;22418;51.210;6.976;2023-06-10T16:08:48;27.50;68.80
36384;DHT22;22418;51.210;6.976;2023-06-10T16:11:19;27.60;65.90